Time;durP1;ratioP1;P1;durP2;ratioP2;P2;SDS_P1;SDS_P2;PMS_P1;PMS_P2;Temp;Humidity;BMP_temperature;BMP_pressure;BME280_temperature;BME280_humidity;BME280_pressure;Samples;Min_cycle;Max_cycle;Signal;HPM_P1;HPM_P2
2021/04/30 00:02:19;;;;;;;10.38;9.05;;;;;;;12.01;63.68;99447.21;1717620;82;21264;-60
2021/04/30 00:04:47;;;;;;;10.38;9.28;;;;;;;11.99;64.03;99450.70;1719188;82;21197;-62
2021/04/30 00:07:16;;;;;;;10.40;9.40;;;;;;;11.97;64.46;99442.62;1721693;82;21145;-67
2021/04/30 00:09:44;;;;;;;10.43;9.25;;;;;;;11.97;64.58;99441.27;1721165;82;21189;-61
2021/04/30 00:12:13;;;;;;;11.73;9.38;;;;;;;11.96;64.71;99434.25;1716423;82;21392;-60
2021/04/30 00:14:40;;;;;;;15.32;9.50;;;;;;;11.97;64.96;99442.62;1732526;82;21157;-61
2021/04/30 00:17:08;;;;;;;11.33;10.08;;;;;;;11.95;65.28;99441.52;1731470;82;21633;-61
2021/04/30 00:19:37;;;;;;;13.70;10.03;;;;;;;11.92;65.46;99440.72;1734081;82;21124;-59
2021/04/30 00:22:04;;;;;;;12.00;10.03;;;;;;;11.92;65.52;99440.72;1725088;82;21136;-59
2021/04/30 00:24:33;;;;;;;16.80;12.33;;;;;;;11.93;65.81;99439.65;1704752;82;21390;-60
2021/04/30 00:27:01;;;;;;;19.75;12.47;;;;;;;11.94;65.80;99439.89;1713463;82;21057;-59
2021/04/30 00:29:29;;;;;;;15.95;11.53;;;;;;;11.93;66.00;99441.00;1704602;84;21213;-60
2021/04/30 00:31:58;;;;;;;13.38;10.03;;;;;;;11.95;66.07;99438.83;1711053;82;21166;-61
2021/04/30 00:34:28;;;;;;;14.90;11.80;;;;;;;11.96;66.52;99436.41;1729556;83;21133;-59
2021/04/30 00:36:56;;;;;;;11.03;9.53;;;;;;;11.97;66.76;99431.84;1731918;82;21216;-58
2021/04/30 00:39:24;;;;;;;15.10;11.22;;;;;;;11.98;66.69;99432.92;1728662;82;21646;-63
2021/04/30 00:41:52;;;;;;;12.95;11.43;;;;;;;12.00;67.00;99436.15;1681164;85;21169;-62
2021/04/30 00:44:20;;;;;;;12.73;10.05;;;;;;;12.01;67.11;99434.27;1712592;82;21226;-62
2021/04/30 00:46:49;;;;;;;16.97;12.50;;;;;;;12.02;67.33;99439.41;1713333;82;21126;-63
2021/04/30 00:49:17;;;;;;;11.85;10.60;;;;;;;12.02;67.38;99442.09;1703222;82;21376;-60
2021/04/30 00:51:45;;;;;;;12.53;10.88;;;;;;;12.04;67.41;99438.58;1725680;82;21949;-63
2021/04/30 00:54:14;;;;;;;13.53;11.05;;;;;;;12.06;67.43;99431.05;1717200;82;21189;-62
2021/04/30 00:56:42;;;;;;;12.53;10.30;;;;;;;12.11;67.44;99432.95;1702076;84;21643;-63
2021/04/30 00:59:10;;;;;;;16.07;12.05;;;;;;;12.10;67.74;99438.06;1721186;82;21109;-62
2021/04/30 01:01:39;;;;;;;16.80;12.85;;;;;;;12.08;68.04;99433.49;1700340;83;21619;-62
2021/04/30 01:04:07;;;;;;;14.07;11.10;;;;;;;12.07;68.11;99432.69;1729234;82;21184;-64
2021/04/30 01:06:36;;;;;;;12.33;10.90;;;;;;;12.06;68.40;99430.23;1724897;82;21002;-63
2021/04/30 01:09:05;;;;;;;13.90;12.47;;;;;;;12.07;68.51;99433.22;1682946;85;21141;-63
2021/04/30 01:11:35;;;;;;;11.73;10.50;;;;;;;12.11;68.42;99427.56;1727741;82;21192;-63
2021/04/30 01:14:03;;;;;;;11.75;10.55;;;;;;;12.14;68.38;99421.63;1681601;85;21230;-60
2021/04/30 01:16:31;;;;;;;11.70;10.60;;;;;;;12.18;68.41;99417.34;1730728;82;21208;-59
2021/04/30 01:18:59;;;;;;;12.70;10.08;;;;;;;12.20;68.39;99422.73;1678128;85;21039;-62
2021/04/30 01:21:26;;;;;;;15.25;11.97;;;;;;;12.21;68.50;99425.70;1655789;85;21698;-62
2021/04/30 01:23:55;;;;;;;18.90;10.98;;;;;;;12.20;68.59;99423.27;1702484;84;21220;-60
2021/04/30 01:26:23;;;;;;;11.97;10.80;;;;;;;12.21;68.72;99424.89;1665348;83;21411;-61
2021/04/30 01:28:53;;;;;;;13.13;11.68;;;;;;;12.23;68.67;99414.63;1732340;82;21582;-62
2021/04/30 01:31:22;;;;;;;10.72;9.70;;;;;;;12.26;68.62;99411.95;1707974;83;21102;-63
2021/04/30 01:33:55;;;;;;;10.53;9.43;;;;;;;12.28;68.65;99412.51;1703935;82;21157;-60
2021/04/30 01:36:23;;;;;;;11.20;9.85;;;;;;;12.30;68.71;99400.90;1703750;82;21244;-61
2021/04/30 01:38:53;;;;;;;11.73;10.63;;;;;;;12.30;68.72;99402.25;1703088;84;21459;-61
2021/04/30 01:41:22;;;;;;;10.53;9.48;;;;;;;12.33;68.58;99402.52;1704746;82;21617;-63
2021/04/30 01:43:49;;;;;;;11.80;7.58;;;;;;;12.36;68.47;99404.69;1706343;82;21200;-62
2021/04/30 01:46:17;;;;;;;11.10;9.90;;;;;;;12.41;68.37;99403.34;1703514;82;21209;-61
2021/04/30 01:48:46;;;;;;;9.30;8.43;;;;;;;12.46;68.22;99396.61;1703321;82;21160;-60
2021/04/30 01:51:14;;;;;;;10.13;8.93;;;;;;;12.54;67.97;99397.95;1726356;82;21211;-60
2021/04/30 01:53:42;;;;;;;14.83;11.53;;;;;;;12.59;67.74;99390.67;1711573;82;21153;-60
2021/04/30 01:56:14;;;;;;;11.57;10.15;;;;;;;12.64;67.52;99396.61;1672059;83;21197;-60
2021/04/30 01:58:42;;;;;;;10.10;8.73;;;;;;;12.71;67.30;99390.95;1703154;84;21145;-62
2021/04/30 02:01:11;;;;;;;8.78;7.95;;;;;;;12.73;67.12;99387.42;1658861;85;21475;-60
2021/04/30 02:03:39;;;;;;;11.43;8.85;;;;;;;12.73;67.06;99388.23;1709561;82;21581;-65
2021/04/30 02:06:06;;;;;;;15.00;9.48;;;;;;;12.75;66.95;99383.92;1720605;82;21122;-61
2021/04/30 02:08:35;;;;;;;13.95;9.88;;;;;;;12.75;66.96;99380.69;1724029;81;21243;-61
2021/04/30 02:11:04;;;;;;;11.60;9.38;;;;;;;12.73;66.93;99377.98;1735123;81;21150;-62
2021/04/30 02:13:32;;;;;;;10.70;9.15;;;;;;;12.71;66.98;99369.36;1731333;81;21205;-60
2021/04/30 02:16:00;;;;;;;11.93;10.45;;;;;;;12.67;67.12;99372.58;1723301;83;21391;-62
2021/04/30 02:18:28;;;;;;;10.13;9.23;;;;;;;12.67;67.08;99362.33;1723709;81;21138;-62
2021/04/30 02:20:56;;;;;;;14.30;11.25;;;;;;;12.66;67.13;99361.52;1723806;81;21643;-60
2021/04/30 02:23:24;;;;;;;12.23;8.88;;;;;;;12.64;67.22;99358.83;1743599;81;21031;-63
2021/04/30 02:25:52;;;;;;;11.35;9.48;;;;;;;12.63;67.20;99363.41;1750847;82;21298;-62
2021/04/30 02:28:21;;;;;;;12.78;11.43;;;;;;;12.64;67.23;99376.37;1729954;82;21212;-63
2021/04/30 02:30:48;;;;;;;15.18;13.43;;;;;;;12.61;67.35;99368.83;1742720;81;21614;-62
2021/04/30 02:33:17;;;;;;;19.85;14.18;;;;;;;12.60;67.31;99364.50;1739814;81;21153;-61
2021/04/30 02:35:47;;;;;;;24.00;17.07;;;;;;;12.60;67.42;99372.59;1753263;81;21121;-61
2021/04/30 02:38:16;;;;;;;26.07;18.67;;;;;;;12.58;67.38;99364.77;1752307;81;21166;-61
2021/04/30 02:40:48;;;;;;;30.45;23.02;;;;;;;12.57;67.40;99361.80;1747095;81;22138;-61
2021/04/30 02:43:18;;;;;;;29.27;21.73;;;;;;;12.54;67.45;99355.60;1724040;81;21117;-61
2021/04/30 02:45:51;;;;;;;28.52;23.05;;;;;;;12.55;67.46;99360.45;1723726;82;21559;-61
2021/04/30 02:48:23;;;;;;;27.93;21.00;;;;;;;12.54;67.51;99352.91;1744037;81;21150;-60
2021/04/30 02:50:46;;;;;;;24.85;19.32;;;;;;;12.52;67.61;99356.94;1739152;81;21618;-61
2021/04/30 02:53:14;;;;;;;23.67;18.75;;;;;;;12.47;67.69;99353.70;1734508;81;21288;-60
2021/04/30 02:55:43;;;;;;;21.75;16.75;;;;;;;12.45;67.84;99355.06;1753186;81;21050;-60
2021/04/30 02:58:11;;;;;;;16.60;13.78;;;;;;;12.41;67.90;99356.16;1753172;81;21153;-62
2021/04/30 03:00:39;;;;;;;17.65;15.78;;;;;;;12.38;68.00;99355.32;1750093;81;21535;-61
2021/04/30 03:03:07;;;;;;;17.37;14.18;;;;;;;12.39;67.85;99360.99;1751386;81;21643;-62
2021/04/30 03:05:35;;;;;;;15.48;12.55;;;;;;;12.40;67.81;99352.37;1759561;80;21599;-60
2021/04/30 03:08:04;;;;;;;15.88;11.78;;;;;;;12.39;67.93;99362.88;1765290;80;21018;-62
2021/04/30 03:10:32;;;;;;;15.88;12.40;;;;;;;12.39;67.74;99363.69;1740120;81;21163;-61
2021/04/30 03:13:00;;;;;;;13.95;11.20;;;;;;;12.40;67.74;99363.97;1763683;81;21173;-61
2021/04/30 03:15:28;;;;;;;13.25;11.88;;;;;;;12.42;67.66;99371.23;1765336;80;21153;-61
2021/04/30 03:17:56;;;;;;;12.10;10.82;;;;;;;12.43;67.59;99371.51;1765363;81;21215;-60
2021/04/30 03:20:24;;;;;;;15.23;10.20;;;;;;;12.44;67.59;99377.71;1747288;80;21196;-61
2021/04/30 03:22:51;;;;;;;10.95;9.55;;;;;;;12.42;67.64;99373.92;1754981;81;21020;-62
2021/04/30 03:25:20;;;;;;;10.28;9.28;;;;;;;12.42;67.54;99371.23;1734883;82;21050;-60
2021/04/30 03:27:48;;;;;;;9.33;8.43;;;;;;;12.44;67.50;99373.13;1735799;81;21133;-63
2021/04/30 03:30:18;;;;;;;12.43;11.15;;;;;;;12.44;67.49;99371.78;1749544;81;22820;-62
2021/04/30 03:32:46;;;;;;;13.05;11.43;;;;;;;12.43;67.41;99378.78;1740302;81;21079;-64
2021/04/30 03:35:18;;;;;;;10.08;8.88;;;;;;;12.44;67.36;99376.37;1762001;81;21038;-62
2021/04/30 03:37:46;;;;;;;14.90;9.38;;;;;;;12.46;67.28;99380.96;1764558;81;21546;-64
2021/04/30 03:40:16;;;;;;;16.15;10.48;;;;;;;12.48;67.15;99384.99;1772511;79;21142;-65
2021/04/30 03:42:45;;;;;;;8.20;7.40;;;;;;;12.52;66.95;99394.70;1716502;82;21006;-63
2021/04/30 03:45:14;;;;;;;12.98;11.68;;;;;;;12.56;66.68;99385.02;1702726;83;21675;-62
2021/04/30 03:47:42;;;;;;;10.18;9.03;;;;;;;12.59;66.59;99387.97;1750769;81;21134;-64
2021/04/30 03:50:11;;;;;;;10.43;8.73;;;;;;;12.61;66.48;99378.27;1745032;81;21582;-62
2021/04/30 03:52:40;;;;;;;14.18;7.40;;;;;;;12.61;66.43;99375.00;1746815;81;21180;-63
2021/04/30 03:55:09;;;;;;;10.48;8.48;;;;;;;12.61;66.32;99376.36;1753506;81;21546;-63
2021/04/30 03:57:37;;;;;;;10.10;9.03;;;;;;;12.62;66.30;99376.63;1752903;81;21138;-63
2021/04/30 04:00:06;;;;;;;8.48;7.58;;;;;;;12.62;66.28;99380.67;1734887;82;21160;-64
2021/04/30 04:02:35;;;;;;;8.48;7.62;;;;;;;12.65;66.22;99370.71;1746562;81;21054;-65
2021/04/30 04:05:05;;;;;;;10.05;8.73;;;;;;;12.65;66.28;99369.36;1735820;81;21201;-62
2021/04/30 04:07:33;;;;;;;10.63;9.53;;;;;;;12.65;66.26;99366.66;1765860;81;21425;-62
2021/04/30 04:10:02;;;;;;;9.13;7.50;;;;;;;12.65;66.28;99367.20;1752532;81;21236;-60
2021/04/30 04:12:29;;;;;;;12.25;9.00;;;;;;;12.69;66.25;99368.27;1736659;81;21157;-62
2021/04/30 04:14:59;;;;;;;12.50;7.85;;;;;;;12.71;66.15;99368.79;1741997;81;21169;-62
2021/04/30 04:17:26;;;;;;;10.60;8.78;;;;;;;12.74;66.05;99376.36;1735526;82;21161;-63
2021/04/30 04:19:55;;;;;;;15.83;9.50;;;;;;;12.76;65.98;99368.00;1750558;81;21153;-62
2021/04/30 04:22:23;;;;;;;8.03;7.28;;;;;;;12.79;65.86;99357.47;1764911;81;21186;-64
2021/04/30 04:24:52;;;;;;;8.93;8.08;;;;;;;12.84;65.62;99354.77;1765893;81;21161;-62
2021/04/30 04:27:23;;;;;;;10.18;7.58;;;;;;;12.89;65.43;99356.64;1765932;80;21207;-63
2021/04/30 04:29:50;;;;;;;8.73;7.87;;;;;;;12.91;65.30;99359.32;1765969;81;21205;-62
2021/04/30 04:32:18;;;;;;;9.65;7.12;;;;;;;12.95;65.18;99362.31;1737118;81;21201;-68
2021/04/30 04:34:46;;;;;;;8.50;7.17;;;;;;;12.98;64.89;99359.86;1736119;81;21598;-62
2021/04/30 04:37:13;;;;;;;10.00;8.28;;;;;;;13.01;64.88;99360.66;1735719;81;21042;-61
2021/04/30 04:39:42;;;;;;;7.87;6.78;;;;;;;13.04;64.72;99363.36;1735543;82;21193;-61
2021/04/30 04:42:10;;;;;;;10.08;7.28;;;;;;;13.06;64.60;99346.33;1736256;81;21208;-62
2021/04/30 04:44:39;;;;;;;12.28;9.05;;;;;;;13.09;64.50;99351.98;1735542;82;21201;-63
2021/04/30 04:47:07;;;;;;;9.63;8.63;;;;;;;13.15;64.30;99354.70;1737658;81;21595;-62
2021/04/30 04:49:35;;;;;;;9.30;8.33;;;;;;;13.16;64.21;99342.83;1736246;81;21171;-60
2021/04/30 04:52:04;;;;;;;8.80;6.95;;;;;;;13.18;64.14;99337.97;1735502;82;21594;-63
2021/04/30 04:54:33;;;;;;;11.93;7.90;;;;;;;13.24;64.10;99338.20;1735787;82;21184;-59
2021/04/30 04:57:00;;;;;;;9.60;7.78;;;;;;;13.27;63.88;99334.97;1735563;82;22063;-62
2021/04/30 04:59:29;;;;;;;7.17;6.50;;;;;;;13.33;63.82;99333.88;1747995;81;21161;-61
2021/04/30 05:01:56;;;;;;;8.48;6.87;;;;;;;13.41;63.57;99333.28;1759178;80;21145;-60
2021/04/30 05:04:24;;;;;;;9.58;8.25;;;;;;;13.46;63.37;99344.07;1765872;81;21141;-63
2021/04/30 05:06:53;;;;;;;9.83;6.22;;;;;;;13.51;63.01;99335.41;1764144;80;21200;-62
2021/04/30 05:09:23;;;;;;;8.83;7.53;;;;;;;13.60;62.94;99340.22;1751153;80;21367;-61
2021/04/30 05:11:50;;;;;;;8.68;6.87;;;;;;;13.65;62.73;99333.44;1733403;82;21232;-60
2021/04/30 05:14:19;;;;;;;7.92;7.12;;;;;;;13.68;62.31;99333.68;1733431;81;21207;-61
2021/04/30 05:16:49;;;;;;;12.78;8.20;;;;;;;13.69;62.37;99338.01;1732849;81;21579;-62
2021/04/30 05:19:16;;;;;;;9.85;7.50;;;;;;;13.70;62.23;99338.81;1762818;81;21027;-62
2021/04/30 05:21:46;;;;;;;12.80;8.10;;;;;;;13.71;62.25;99336.39;1763271;81;21383;-61
2021/04/30 05:24:14;;;;;;;9.08;8.18;;;;;;;13.72;62.26;99330.68;1738457;81;21270;-61
2021/04/30 05:26:44;;;;;;;13.72;8.00;;;;;;;13.73;62.20;99330.14;1733337;82;21648;-62
2021/04/30 05:29:14;;;;;;;9.93;8.50;;;;;;;13.76;62.25;99332.30;1734325;81;21165;-61
2021/04/30 05:31:41;;;;;;;10.85;7.78;;;;;;;13.79;62.14;99329.84;1733391;82;21602;-62
2021/04/30 05:34:09;;;;;;;14.50;8.38;;;;;;;13.84;62.17;99330.36;1749844;81;21391;-61
2021/04/30 05:36:37;;;;;;;11.68;7.40;;;;;;;13.90;62.03;99333.30;1763747;81;21130;-62
2021/04/30 05:39:06;;;;;;;9.10;7.37;;;;;;;13.92;61.88;99330.56;1737996;81;21168;-62
2021/04/30 05:41:33;;;;;;;9.90;7.42;;;;;;;13.95;61.79;99327.32;1733405;82;21638;-61
2021/04/30 05:44:01;;;;;;;6.25;5.65;;;;;;;13.98;61.78;99317.28;1733342;81;21254;-62
2021/04/30 05:46:28;;;;;;;8.15;6.15;;;;;;;14.01;61.48;99320.50;1746366;81;22117;-62
2021/04/30 05:48:56;;;;;;;8.50;6.17;;;;;;;14.06;61.33;99314.52;1746968;80;21269;-61
2021/04/30 05:51:24;;;;;;;9.15;6.55;;;;;;;14.10;61.15;99313.42;1738784;81;21007;-63
2021/04/30 05:53:52;;;;;;;7.75;6.37;;;;;;;14.16;60.95;99311.73;1744236;80;21125;-61
2021/04/30 05:56:21;;;;;;;7.08;5.67;;;;;;;14.22;60.81;99317.92;1732490;82;21125;-62
2021/04/30 05:58:49;;;;;;;7.35;6.00;;;;;;;14.27;60.55;99307.87;1746516;81;21375;-62
2021/04/30 06:01:17;;;;;;;6.45;5.03;;;;;;;14.33;60.40;99318.11;1763734;81;21141;-61
2021/04/30 06:03:45;;;;;;;8.75;4.60;;;;;;;14.40;60.00;99313.19;1762714;81;21145;-63
2021/04/30 06:06:12;;;;;;;13.13;5.28;;;;;;;14.44;59.81;99316.13;1740845;81;21121;-62
2021/04/30 06:08:40;;;;;;;6.37;5.12;;;;;;;14.49;59.45;99318.80;1735592;81;21581;-62
2021/04/30 06:11:08;;;;;;;4.62;4.22;;;;;;;14.54;59.01;99307.37;1735199;81;22442;-61
2021/04/30 06:13:37;;;;;;;7.10;4.92;;;;;;;14.60;58.62;99306.25;1735449;81;21605;-62
2021/04/30 06:16:05;;;;;;;8.18;5.22;;;;;;;14.61;58.54;99307.06;1734940;82;21002;-62
2021/04/30 06:18:34;;;;;;;6.65;5.10;;;;;;;14.58;58.54;99315.19;1756316;81;21141;-62
2021/04/30 06:21:02;;;;;;;5.35;4.47;;;;;;;14.63;58.49;99307.56;1765387;80;21145;-61
2021/04/30 06:23:30;;;;;;;10.25;5.22;;;;;;;14.62;58.33;99302.72;1764502;81;22401;-67
2021/04/30 06:25:58;;;;;;;7.30;5.03;;;;;;;14.66;58.57;99309.17;1765392;81;21137;-61
2021/04/30 06:28:26;;;;;;;6.75;6.08;;;;;;;14.71;58.50;99319.95;1763100;81;21169;-61
2021/04/30 06:30:56;;;;;;;6.45;5.17;;;;;;;14.77;58.34;99308.53;1765315;81;21169;-62
2021/04/30 06:33:24;;;;;;;5.17;4.67;;;;;;;14.81;58.31;99319.05;1764200;80;21642;-63
2021/04/30 06:35:51;;;;;;;9.55;6.50;;;;;;;14.82;58.38;99326.05;1765316;81;21382;-61
2021/04/30 06:38:21;;;;;;;7.60;5.10;;;;;;;14.77;59.01;99318.02;1764999;80;21088;-62
2021/04/30 06:40:49;;;;;;;9.45;6.08;;;;;;;14.78;59.11;99315.54;1765413;81;21144;-62
2021/04/30 06:43:17;;;;;;;6.25;5.65;;;;;;;14.80;59.59;99315.53;1756003;81;21641;-62
2021/04/30 06:45:45;;;;;;;6.60;5.58;;;;;;;14.83;59.61;99305.47;1760697;81;21168;-62
2021/04/30 06:48:13;;;;;;;6.10;4.67;;;;;;;14.87;59.61;99300.85;1734931;82;21205;-63
2021/04/30 06:50:41;;;;;;;5.50;4.78;;;;;;;14.92;59.66;99298.87;1735021;81;21697;-64
2021/04/30 06:53:09;;;;;;;6.65;5.78;;;;;;;14.91;60.06;99293.77;1734879;82;21117;-62
2021/04/30 06:55:36;;;;;;;10.40;6.45;;;;;;;14.93;60.14;99315.39;1753545;81;21574;-62
2021/04/30 06:58:06;;;;;;;7.55;5.33;;;;;;;14.97;60.35;99304.77;1760275;81;21098;-62
2021/04/30 07:00:35;;;;;;;5.50;4.75;;;;;;;14.98;60.49;99315.87;1734966;82;21286;-63
2021/04/30 07:03:05;;;;;;;5.83;4.97;;;;;;;15.04;60.37;99311.48;1735539;81;21191;-60
2021/04/30 07:05:35;;;;;;;5.72;5.22;;;;;;;15.16;60.05;99319.19;1734057;82;21142;-62
2021/04/30 07:08:05;;;;;;;14.20;6.83;;;;;;;15.23;59.93;99321.82;1735055;81;21046;-61
2021/04/30 07:10:33;;;;;;;6.90;5.70;;;;;;;15.31;59.94;99323.07;1734963;82;21141;-64
2021/04/30 07:13:12;;;;;;;8.05;6.50;;;;;;;15.37;60.01;99312.44;1735621;81;21457;-61
2021/04/30 07:15:39;;;;;;;8.35;5.87;;;;;;;15.42;60.00;99307.50;1736620;81;21121;-62
2021/04/30 07:18:07;;;;;;;16.02;5.58;;;;;;;15.41;60.18;99302.63;1737224;81;21704;-60
2021/04/30 07:20:35;;;;;;;7.65;6.50;;;;;;;15.50;60.17;99314.42;1734874;82;21192;-62
2021/04/30 07:23:04;;;;;;;13.03;6.85;;;;;;;15.59;60.06;99312.70;1743381;81;21663;-62
2021/04/30 07:25:33;;;;;;;18.80;7.35;;;;;;;15.69;59.92;99309.86;1765231;81;21192;-65
2021/04/30 07:28:01;;;;;;;11.60;7.00;;;;;;;15.74;59.94;99307.63;1765232;81;21047;-64
2021/04/30 07:30:30;;;;;;;14.93;6.17;;;;;;;15.83;59.83;99307.77;1764407;81;21054;-68
2021/04/30 07:32:58;;;;;;;8.85;5.22;;;;;;;15.92;59.65;99289.76;1735479;81;20999;-62
2021/04/30 07:35:29;;;;;;;16.95;5.72;;;;;;;15.98;59.41;99289.37;1733763;82;21567;-66
2021/04/30 07:37:57;;;;;;;8.80;7.12;;;;;;;16.08;59.42;99288.40;1734912;82;21287;-63
2021/04/30 07:40:27;;;;;;;8.55;6.70;;;;;;;16.17;59.28;99300.73;1734834;82;21125;-61
2021/04/30 07:42:56;;;;;;;7.30;6.53;;;;;;;16.25;59.04;99288.68;1718741;82;21120;-62
2021/04/30 07:45:24;;;;;;;11.95;5.87;;;;;;;16.35;59.00;99298.56;1735513;81;21026;-66
2021/04/30 07:47:52;;;;;;;13.08;6.92;;;;;;;16.44;58.61;99288.09;1735108;82;21165;-62
2021/04/30 07:50:21;;;;;;;10.82;6.37;;;;;;;16.52;58.49;99275.17;1758353;81;21209;-63
2021/04/30 07:52:49;;;;;;;14.28;6.58;;;;;;;16.60;58.40;99271.53;1764092;81;21137;-60
2021/04/30 07:55:18;;;;;;;7.78;5.90;;;;;;;16.68;58.36;99276.29;1765424;81;21104;-62
2021/04/30 07:57:45;;;;;;;7.65;5.97;;;;;;;16.81;58.27;99276.84;1761099;81;21074;-63
2021/04/30 08:00:14;;;;;;;6.65;5.65;;;;;;;16.92;58.07;99276.91;1735027;82;21157;-61
2021/04/30 08:02:42;;;;;;;8.15;5.70;;;;;;;17.05;58.02;99270.67;1758037;81;21193;-64
2021/04/30 08:05:11;;;;;;;11.80;5.30;;;;;;;17.16;57.51;99278.88;1760569;80;21641;-61
2021/04/30 08:07:41;;;;;;;15.88;6.37;;;;;;;17.22;56.85;99274.92;1757559;81;21487;-64
2021/04/30 08:10:11;;;;;;;8.15;5.03;;;;;;;17.22;56.81;99273.56;1753285;81;21165;-62
2021/04/30 08:12:39;;;;;;;6.10;4.40;;;;;;;17.27;56.56;99259.06;1731592;81;21197;-61
2021/04/30 08:15:09;;;;;;;7.62;4.58;;;;;;;17.33;56.48;99274.97;1723426;83;22233;-64
2021/04/30 08:17:37;;;;;;;9.83;4.78;;;;;;;17.34;56.12;99263.00;1723357;81;21397;-61
2021/04/30 08:20:08;;;;;;;6.28;4.75;;;;;;;17.33;55.85;99262.73;1723458;83;21614;-61
2021/04/30 08:22:36;;;;;;;11.25;7.17;;;;;;;17.29;55.40;99248.70;1723893;81;21190;-61
2021/04/30 08:25:05;;;;;;;10.23;4.67;;;;;;;17.26;55.16;99252.85;1737857;81;21555;-62
2021/04/30 08:27:34;;;;;;;5.28;4.28;;;;;;;17.31;55.23;99252.71;1751182;81;21191;-63
2021/04/30 08:30:02;;;;;;;7.47;4.47;;;;;;;17.39;54.92;99248.48;1753257;80;21008;-62
2021/04/30 08:32:30;;;;;;;9.43;5.67;;;;;;;17.44;54.62;99260.06;1752398;80;21173;-63
2021/04/30 08:34:59;;;;;;;4.17;3.77;;;;;;;17.49;54.02;99252.34;1753251;81;21166;-62
2021/04/30 08:37:28;;;;;;;5.05;4.25;;;;;;;17.55;53.20;99256.56;1753276;81;21640;-61
2021/04/30 08:40:00;;;;;;;5.40;3.90;;;;;;;17.59;53.25;99246.72;1753272;81;21213;-62
2021/04/30 08:42:27;;;;;;;4.30;3.90;;;;;;;17.64;52.93;99234.36;1736879;81;21157;-64
2021/04/30 08:44:56;;;;;;;15.15;5.60;;;;;;;17.76;52.49;99229.16;1726911;81;21213;-61
2021/04/30 08:47:24;;;;;;;4.53;3.75;;;;;;;17.89;51.40;99237.59;1723299;83;21162;-63
2021/04/30 08:49:55;;;;;;;6.62;4.08;;;;;;;17.97;51.17;99245.01;1723331;83;21579;-63
2021/04/30 08:52:23;;;;;;;5.12;4.55;;;;;;;18.05;50.94;99230.66;1723377;83;21387;-60
2021/04/30 08:54:53;;;;;;;6.25;5.12;;;;;;;18.07;50.67;99233.88;1737268;81;21185;-64
2021/04/30 08:57:26;;;;;;;6.30;4.72;;;;;;;18.09;50.56;99227.55;1753224;81;21189;-63
2021/04/30 08:59:57;;;;;;;4.20;3.80;;;;;;;18.11;50.62;99228.87;1751972;81;21155;-62
2021/04/30 09:02:26;;;;;;;10.18;4.08;;;;;;;18.18;50.52;99239.30;1735618;81;21564;-64
2021/04/30 09:04:55;;;;;;;7.53;4.92;;;;;;;18.22;50.58;99213.86;1736548;81;21630;-61
2021/04/30 09:07:26;;;;;;;5.30;4.53;;;;;;;18.30;50.56;99236.83;1741733;81;21621;-64
2021/04/30 09:10:10;;;;;;;5.80;4.67;;;;;;;18.37;49.75;99225.50;1743270;79;21156;-64
2021/04/30 09:12:39;;;;;;;7.58;4.53;;;;;;;18.42;49.82;99215.25;1714196;82;21129;-62
2021/04/30 09:15:20;;;;;;;6.92;4.70;;;;;;;18.52;49.56;99216.91;1719264;82;21208;-63
2021/04/30 09:17:48;;;;;;;5.58;4.15;;;;;;;18.54;49.56;99215.52;1694576;84;22246;-64
2021/04/30 09:20:16;;;;;;;7.20;4.42;;;;;;;18.55;49.45;99223.94;1680784;85;21607;-63
2021/04/30 09:22:44;;;;;;;11.73;4.47;;;;;;;18.57;49.31;99203.98;1709583;84;21129;-63
2021/04/30 09:25:17;;;;;;;5.83;4.15;;;;;;;18.66;49.52;99213.55;1725446;82;20994;-62
2021/04/30 09:27:54;;;;;;;6.47;5.87;;;;;;;18.77;48.88;99207.27;1735510;82;21200;-61
2021/04/30 09:30:27;;;;;;;6.65;4.80;;;;;;;18.85;48.90;99215.46;1718544;82;21435;-63
2021/04/30 09:33:07;;;;;;;;;;;;;;;18.92;48.62;99210.92;1728625;82;21120;-62
2021/04/30 09:35:41;;;;;;;5.62;4.42;;;;;;;19.01;47.93;99209.02;1700817;83;20281;-68
2021/04/30 09:38:24;;;;;;;7.35;5.60;;;;;;;19.08;48.20;99199.28;1689956;84;21043;-62
2021/04/30 09:41:08;;;;;;;5.20;4.37;;;;;;;19.15;47.95;99202.32;1689916;84;21130;-62
2021/04/30 09:43:50;;;;;;;5.53;4.97;;;;;;;19.24;47.27;99209.14;1703936;83;21391;-64
2021/04/30 09:46:29;;;;;;;7.15;4.08;;;;;;;19.25;47.25;99202.58;1709509;84;21135;-65
2021/04/30 09:49:01;;;;;;;5.20;4.15;;;;;;;19.26;47.43;99194.65;1709599;84;21137;-63
2021/04/30 09:51:46;;;;;;;4.22;3.75;;;;;;;19.33;47.58;99216.00;1680989;85;21147;-64
2021/04/30 09:54:30;;;;;;;6.05;4.22;;;;;;;19.45;47.28;99206.64;1695963;83;21205;-64
2021/04/30 09:57:22;;;;;;;5.55;4.33;;;;;;;19.57;47.20;99198.61;1720373;82;21336;-63
2021/04/30 10:00:00;;;;;;;7.67;4.83;;;;;;;19.67;46.92;99191.47;1717063;83;21086;-67
2021/04/30 10:02:29;;;;;;;7.50;4.37;;;;;;;19.75;46.45;99192.05;1716043;82;21135;-61
2021/04/30 10:04:59;;;;;;;9.40;4.87;;;;;;;19.72;46.40;99183.68;1747946;81;21145;-65
2021/04/30 10:07:38;;;;;;;4.40;3.70;;;;;;;19.75;46.39;99179.77;1764657;80;21153;-66
2021/04/30 10:10:15;;;;;;;5.37;3.90;;;;;;;19.79;45.84;99181.28;1708968;83;22280;-63
2021/04/30 10:12:47;;;;;;;5.58;4.00;;;;;;;19.81;46.36;99175.73;1713065;83;21172;-64
2021/04/30 10:15:21;;;;;;;15.48;4.00;;;;;;;19.98;45.84;99174.35;1713575;83;21278;-64
2021/04/30 10:17:55;;;;;;;9.45;4.37;;;;;;;20.11;45.86;99170.37;1713074;83;21124;-64
2021/04/30 10:20:23;;;;;;;5.53;3.35;;;;;;;20.15;45.58;99162.58;1702578;83;21589;-64
2021/04/30 10:22:51;;;;;;;19.10;4.53;;;;;;;20.29;45.48;99155.53;1720679;82;21401;-65
2021/04/30 10:25:20;;;;;;;5.55;3.62;;;;;;;20.40;45.54;99164.45;1684402;85;21180;-66
2021/04/30 10:27:53;;;;;;;13.18;3.80;;;;;;;20.46;45.30;99160.98;1740921;82;21649;-63
2021/04/30 10:30:37;;;;;;;5.92;3.90;;;;;;;20.53;45.35;99180.98;1727382;82;21600;-65
2021/04/30 10:33:34;;;;;;;4.15;3.60;;;;;;;20.54;45.22;99166.16;1705374;82;21212;-65
2021/04/30 10:36:18;;;;;;;5.65;4.03;;;;;;;20.57;44.85;99196.95;1724175;82;21206;-65
2021/04/30 10:41:38;;;;;;;4.50;3.27;;;;;;;20.50;45.40;99173.41;1837025;76;22911;-64
2021/04/30 10:44:27;;;;;;;3.83;3.15;;;;;;;20.49;45.37;99160.88;1785008;80;20986;-65
2021/04/30 10:47:15;;;;;;;8.90;3.98;;;;;;;20.51;45.29;99151.80;1802010;79;22338;-65
2021/04/30 10:49:44;;;;;;;10.30;4.90;;;;;;;20.52;45.52;99159.68;1817063;79;21063;-63
2021/04/30 10:52:22;;;;;;;5.55;4.42;;;;;;;20.63;45.22;99149.96;1779798;79;21582;-64
2021/04/30 10:55:12;;;;;;;5.60;4.35;;;;;;;20.72;45.14;99157.55;1784881;80;21070;-63
2021/04/30 10:57:48;;;;;;;6.58;4.00;;;;;;;20.81;44.92;99137.80;1785870;79;21037;-64
2021/04/30 11:00:19;;;;;;;17.35;4.58;;;;;;;20.82;44.76;99135.87;1750390;82;21422;-63
2021/04/30 11:02:47;;;;;;;5.42;4.70;;;;;;;20.86;44.81;99133.50;1733370;82;21062;-65
2021/04/30 11:05:17;;;;;;;12.07;4.65;;;;;;;20.95;44.52;99119.81;1733118;81;21022;-67
2021/04/30 11:07:53;;;;;;;9.25;4.60;;;;;;;20.98;44.50;99125.16;1784848;80;21219;-66
2021/04/30 11:10:31;;;;;;;8.05;3.50;;;;;;;20.93;44.70;99134.36;1784976;80;21129;-65
2021/04/30 11:13:18;;;;;;;7.55;4.78;;;;;;;21.01;44.67;99132.69;1810418;79;22168;-63
2021/04/30 11:15:51;;;;;;;10.20;5.20;;;;;;;21.02;44.77;99124.16;1786241;79;21125;-62
2021/04/30 11:18:26;;;;;;;7.37;3.45;;;;;;;21.17;44.79;99131.01;1738095;81;20973;-61
2021/04/30 11:21:05;;;;;;;7.70;3.65;;;;;;;21.23;44.58;99116.81;1733202;82;21072;-62
2021/04/30 11:26:19;;;;;;;14.58;4.30;;;;;;;21.46;44.25;99109.61;1846238;76;22717;-62
2021/04/30 11:29:02;;;;;;;7.40;4.15;;;;;;;21.52;44.21;99107.70;1817079;79;20963;-64
2021/04/30 11:31:32;;;;;;;12.30;4.45;;;;;;;21.57;44.10;99096.56;1816190;78;21200;-64
2021/04/30 11:34:16;;;;;;;6.95;4.12;;;;;;;21.66;44.05;99108.22;1806258;79;22055;-63
2021/04/30 11:36:50;;;;;;;6.72;4.22;;;;;;;21.75;43.46;99096.61;1734181;82;20998;-64
2021/04/30 11:39:30;;;;;;;3.30;3.00;;;;;;;21.84;43.56;99103.92;1732193;82;20986;-64
2021/04/30 11:42:02;;;;;;;4.83;3.62;;;;;;;21.99;43.15;99090.98;1724354;82;21038;-61
2021/04/30 11:44:30;;;;;;;7.58;4.67;;;;;;;22.06;43.21;99096.12;1750463;82;21920;-63
2021/04/30 11:47:03;;;;;;;9.68;4.53;;;;;;;22.11;43.17;99090.42;1732111;82;21028;-61